Archival Weather

Phoenix Sky Harbor Intl

Phoenix, Arizona (KPHX)

Report from: Thursday, December 7, 2023 3:51 PM MST
Current time: Tuesday, July 16, 2024 3:08 AM MST

Current weather – Weather history – Daily summaries
Weather forecast

Temperature25.0°C (77.0°F)
Dew point0.6°C (33.1°F)
Winds 4 kts (2.1 m/s, 4.6 mph) South-Southeast (150°)
Visibility10 mi. (16.1 km)
Clouds Few clouds 18,000 ft. (5,486 m)
Few clouds 25,000 ft. (7,620 m)
Altimeter29.88 in.Hg (1012 mB)
Relative humidity20 %
Density altitude1,344 ft. (410 m)
Sea-level pressure101.1 kPa (1011 mB, 29.85 in.Hg)
Remarks Automated weather observing station with precipitation discriminator
Flight conditions Visual Meteorological Conditions
Raw dataKPHX 072251Z 15004KT 10SM FEW180 FEW250 25/01 A2988 RMK AO2 SLP107 T02500006
An error has occurred. This application may no longer respond until reloaded. Reload 🗙